createdAt,value
2022-10-04T00:00:44.802Z,1.80
2022-10-04T00:03:23.858Z,1.63
2022-10-04T00:06:00.126Z,1.60
2022-10-04T00:08:45.086Z,1.63
2022-10-04T00:11:23.266Z,1.70
2022-10-04T00:14:05.179Z,1.43
2022-10-04T00:16:39.696Z,1.57
2022-10-04T00:19:47.278Z,1.57
2022-10-04T00:22:25.432Z,1.70
2022-10-04T00:25:21.834Z,1.50
2022-10-04T00:28:31.828Z,1.50
2022-10-04T00:31:26.627Z,1.80
2022-10-04T00:34:00.448Z,1.63
2022-10-04T00:36:57.303Z,1.67
2022-10-04T00:39:44.368Z,1.70
2022-10-04T00:42:46.646Z,1.30
2022-10-04T00:45:35.392Z,1.40
2022-10-04T00:48:32.715Z,1.67
2022-10-04T00:51:11.371Z,1.40
2022-10-04T00:54:05.785Z,1.33
2022-10-04T00:56:42.526Z,1.57
2022-10-04T00:59:37.972Z,1.30
2022-10-04T01:02:15.704Z,1.70
2022-10-04T01:04:52.406Z,1.53
2022-10-04T01:07:30.419Z,1.47
2022-10-04T01:10:05.811Z,1.57
2022-10-04T01:12:46.146Z,1.70
2022-10-04T01:15:24.193Z,1.60
2022-10-04T01:18:15.481Z,1.23
2022-10-04T01:20:57.436Z,1.30
2022-10-04T01:23:46.437Z,1.60
2022-10-04T01:26:42.355Z,1.43
2022-10-04T01:29:15.952Z,1.70
2022-10-04T01:31:47.462Z,1.53
2022-10-04T01:34:18.644Z,1.40
2022-10-04T01:36:48.982Z,1.40
2022-10-04T01:39:21.474Z,1.40
2022-10-04T01:41:58.359Z,1.60
2022-10-04T01:44:33.372Z,1.40
2022-10-04T01:47:06.416Z,1.83
2022-10-04T01:49:39.343Z,1.47
2022-10-04T01:52:16.020Z,1.43
2022-10-04T01:54:49.275Z,1.50
2022-10-04T01:57:23.335Z,1.37
2022-10-04T01:59:57.697Z,1.47
2022-10-04T02:02:35.650Z,1.60
2022-10-04T02:05:10.383Z,1.37
2022-10-04T02:07:40.387Z,1.70
2022-10-04T02:10:14.306Z,1.50
2022-10-04T02:12:47.362Z,1.60
2022-10-04T02:15:18.562Z,1.67
2022-10-04T02:17:47.809Z,1.60
2022-10-04T02:20:19.548Z,1.70
2022-10-04T02:22:59.212Z,1.90
2022-10-04T02:25:29.151Z,1.70
2022-10-04T02:27:58.154Z,1.50
2022-10-04T02:30:27.112Z,1.50
2022-10-04T02:33:00.522Z,1.30
2022-10-04T02:35:35.824Z,1.90
2022-10-04T02:38:13.785Z,1.50
2022-10-04T02:40:52.115Z,1.50
2022-10-04T02:43:27.141Z,1.50
2022-10-04T02:46:07.469Z,1.33
2022-10-04T02:48:45.982Z,1.50
2022-10-04T02:51:22.485Z,1.17
2022-10-04T02:54:05.617Z,1.40
2022-10-04T02:56:39.432Z,1.60
2022-10-04T02:59:09.231Z,1.27
2022-10-04T03:01:49.795Z,1.43
2022-10-04T03:04:21.141Z,1.50
2022-10-04T03:06:50.055Z,1.57
2022-10-04T03:09:26.145Z,1.63
2022-10-04T03:11:59.088Z,1.40
2022-10-04T03:14:30.382Z,1.60
2022-10-04T03:17:04.232Z,1.60
2022-10-04T03:19:34.881Z,1.30
2022-10-04T03:22:08.675Z,1.27
2022-10-04T03:24:47.044Z,1.43
2022-10-04T03:27:21.792Z,1.27
2022-10-04T03:29:54.526Z,1.60
2022-10-04T03:32:26.762Z,1.37
2022-10-04T03:34:59.485Z,1.50
2022-10-04T03:37:31.342Z,1.60
2022-10-04T03:40:01.787Z,1.63
2022-10-04T03:42:35.979Z,1.27
2022-10-04T03:45:09.032Z,1.20
2022-10-04T03:47:42.950Z,1.30
2022-10-04T03:50:17.998Z,1.37
2022-10-04T03:52:51.595Z,1.23
2022-10-04T03:55:21.032Z,1.30
2022-10-04T03:57:52.045Z,1.30
2022-10-04T04:00:21.300Z,1.07
2022-10-04T04:02:56.018Z,1.60
2022-10-04T04:05:31.563Z,1.20
2022-10-04T04:08:08.301Z,1.30
2022-10-04T04:10:40.987Z,1.30
2022-10-04T04:13:23.376Z,1.40
2022-10-04T04:15:52.800Z,1.50
2022-10-04T04:18:24.240Z,1.53
2022-10-04T04:20:59.005Z,1.47
2022-10-04T04:23:32.876Z,1.43
2022-10-04T04:26:19.808Z,1.70
2022-10-04T04:28:52.957Z,1.50
2022-10-04T04:31:25.854Z,1.40
2022-10-04T04:34:00.436Z,1.33
2022-10-04T04:36:31.209Z,1.20
2022-10-04T04:39:27.495Z,1.27
2022-10-04T04:41:56.340Z,1.30
2022-10-04T04:44:27.547Z,1.20
2022-10-04T04:46:56.791Z,1.37
2022-10-04T04:49:25.364Z,1.20
2022-10-04T04:51:54.381Z,1.60
2022-10-04T04:54:27.191Z,1.60
2022-10-04T04:56:57.444Z,1.43
2022-10-04T04:59:29.169Z,1.50
2022-10-04T05:01:57.973Z,1.60
2022-10-04T05:04:27.339Z,1.60
2022-10-04T05:07:04.901Z,1.60
2022-10-04T05:09:35.696Z,1.57
2022-10-04T05:12:09.896Z,1.60
2022-10-04T05:14:46.365Z,1.60
2022-10-04T05:17:21.211Z,1.67
2022-10-04T05:19:50.554Z,1.57
2022-10-04T05:22:23.983Z,1.30
2022-10-04T05:24:56.668Z,1.30
2022-10-04T05:27:31.918Z,1.40
2022-10-04T05:30:10.451Z,1.50
2022-10-04T05:32:55.258Z,1.60
2022-10-04T05:35:24.777Z,1.40
2022-10-04T05:38:06.916Z,1.43
2022-10-04T05:40:46.661Z,1.47
2022-10-04T05:43:33.993Z,1.47
2022-10-04T05:46:19.524Z,1.43
2022-10-04T05:48:54.085Z,1.40
2022-10-04T05:51:26.791Z,1.40
2022-10-04T05:53:58.610Z,1.47
2022-10-04T05:57:05.061Z,1.43
2022-10-04T06:00:10.820Z,1.40
2022-10-04T06:03:20.515Z,1.20
2022-10-04T06:05:56.028Z,1.70
2022-10-04T06:08:44.902Z,1.33
2022-10-04T06:11:30.173Z,1.57
2022-10-04T06:14:39.649Z,1.63
2022-10-04T06:17:42.713Z,1.37
2022-10-04T06:20:44.800Z,1.50
2022-10-04T06:23:17.698Z,1.10
2022-10-04T06:25:52.182Z,1.47
2022-10-04T06:28:26.431Z,1.40
2022-10-04T06:31:33.772Z,1.50
2022-10-04T06:34:38.466Z,1.40
2022-10-04T06:37:33.766Z,1.47
2022-10-04T06:40:38.680Z,1.40
2022-10-04T06:43:25.200Z,1.50
2022-10-04T06:46:16.977Z,1.50
2022-10-04T06:49:32.952Z,1.33
2022-10-04T06:52:37.874Z,1.30
2022-10-04T06:55:33.357Z,1.33
2022-10-04T06:58:29.455Z,1.63
2022-10-04T07:01:04.041Z,1.40
2022-10-04T07:03:40.184Z,1.40
2022-10-04T07:06:11.751Z,1.33
2022-10-04T07:08:49.095Z,1.60
2022-10-04T07:11:24.721Z,1.87
2022-10-04T07:14:00.619Z,1.50
2022-10-04T07:16:38.715Z,1.33
2022-10-04T07:19:31.160Z,1.67
2022-10-04T07:22:17.511Z,1.70
2022-10-04T07:25:16.946Z,1.70
2022-10-04T07:28:14.940Z,1.17
2022-10-04T07:30:51.281Z,1.47
2022-10-04T07:33:25.391Z,1.47
2022-10-04T07:36:02.292Z,1.40
2022-10-04T07:38:34.050Z,1.60
2022-10-04T07:41:10.861Z,1.50
2022-10-04T07:43:52.621Z,1.50
2022-10-04T07:46:33.225Z,1.50
2022-10-04T07:49:02.228Z,1.57
2022-10-04T07:51:40.092Z,1.30
2022-10-04T07:54:19.145Z,1.70
2022-10-04T07:56:57.352Z,1.87
2022-10-04T07:59:48.393Z,1.47
2022-10-04T08:03:21.335Z,1.30
2022-10-04T08:05:56.015Z,1.60
2022-10-04T08:08:48.037Z,1.60
2022-10-04T08:11:27.542Z,1.47
2022-10-04T08:14:05.982Z,1.70
2022-10-04T08:16:39.470Z,1.70
2022-10-04T08:19:30.133Z,1.70
2022-10-04T08:22:05.549Z,1.90
2022-10-04T08:24:43.968Z,1.70
2022-10-04T08:28:17.489Z,1.50
2022-10-04T08:31:03.719Z,1.20
2022-10-04T08:33:53.555Z,1.20
2022-10-04T08:36:43.034Z,1.30
2022-10-04T08:39:29.365Z,1.60
2022-10-04T08:42:50.972Z,1.40
2022-10-04T08:46:23.626Z,1.30
2022-10-04T08:50:12.788Z,1.57
2022-10-04T08:54:19.371Z,1.33
2022-10-04T08:57:16.555Z,1.60
2022-10-04T09:00:18.668Z,1.80
2022-10-04T09:03:38.332Z,1.50
2022-10-04T09:06:25.897Z,1.53
2022-10-04T09:10:04.814Z,1.50
2022-10-04T09:12:59.183Z,1.60
2022-10-04T09:15:54.545Z,1.50
2022-10-04T09:18:59.211Z,1.60
2022-10-04T09:21:50.845Z,1.90
2022-10-04T09:25:01.881Z,1.90
2022-10-04T09:28:12.787Z,1.50
2022-10-04T09:30:59.973Z,1.60
2022-10-04T09:34:04.978Z,1.50
2022-10-04T09:37:36.483Z,1.47
2022-10-04T09:40:53.914Z,1.33
2022-10-04T09:44:07.665Z,1.47
2022-10-04T09:47:24.571Z,1.30
2022-10-04T09:50:47.633Z,1.40
2022-10-04T09:53:46.517Z,1.50
2022-10-04T09:56:46.716Z,1.30
2022-10-04T10:00:08.252Z,1.57
2022-10-04T10:03:42.147Z,1.37
2022-10-04T10:06:47.502Z,1.47
2022-10-04T10:09:43.656Z,1.40
2022-10-04T10:13:10.310Z,1.37
2022-10-04T10:16:04.667Z,1.17
2022-10-04T10:18:51.972Z,1.27
2022-10-04T10:21:39.138Z,1.30
2022-10-04T10:24:38.894Z,1.70
2022-10-04T10:28:16.552Z,1.33
2022-10-04T10:31:43.530Z,1.33
2022-10-04T10:35:16.493Z,1.40
2022-10-04T10:38:16.316Z,1.13
2022-10-04T10:41:23.668Z,1.20
2022-10-04T10:44:59.115Z,1.13
2022-10-04T10:51:12.947Z,1.10
2022-10-04T11:00:45.190Z,1.33
2022-10-04T11:04:21.630Z,1.30
2022-10-04T11:07:45.513Z,1.30
2022-10-04T11:10:59.755Z,1.30
2022-10-04T11:14:14.942Z,1.30
2022-10-04T11:17:16.960Z,1.30
2022-10-04T11:20:49.517Z,1.33
2022-10-04T11:24:14.226Z,1.20
2022-10-04T11:27:13.933Z,1.23
2022-10-04T11:30:25.278Z,1.10
2022-10-04T11:33:30.523Z,1.30
2022-10-04T11:36:27.399Z,1.33
2022-10-04T11:39:16.242Z,1.10
2022-10-04T11:41:55.865Z,1.10
2022-10-04T11:44:59.841Z,1.07
2022-10-04T11:47:43.373Z,1.17
2022-10-04T11:50:35.277Z,1.17
2022-10-04T11:53:40.328Z,1.00
2022-10-04T11:56:24.525Z,1.30
2022-10-04T11:59:12.966Z,1.07
2022-10-04T12:02:32.177Z,1.27
2022-10-04T12:05:22.292Z,1.10
2022-10-04T12:08:07.407Z,1.20
2022-10-04T12:10:39.175Z,1.20
2022-10-04T12:13:51.603Z,1.00
2022-10-04T12:16:49.075Z,0.80
2022-10-04T12:19:47.145Z,0.90
2022-10-04T12:22:46.277Z,0.73
2022-10-04T12:26:00.506Z,1.40
2022-10-04T12:29:10.770Z,1.00
2022-10-04T12:31:45.059Z,0.90
2022-10-04T12:34:24.170Z,1.00
2022-10-04T12:37:15.236Z,0.93
2022-10-04T12:40:23.934Z,0.97
2022-10-04T12:43:06.105Z,1.07
2022-10-04T12:45:59.558Z,0.97
2022-10-04T12:48:49.574Z,0.90
2022-10-04T12:51:34.365Z,0.80
2022-10-04T12:54:21.520Z,0.70
2022-10-04T12:57:01.713Z,0.80
2022-10-04T12:59:55.327Z,1.10
2022-10-04T13:02:44.924Z,0.80
2022-10-04T13:05:22.604Z,0.80
2022-10-04T13:08:09.924Z,0.60
2022-10-04T13:10:56.860Z,0.90
2022-10-04T13:13:58.873Z,0.83
2022-10-04T13:19:50.627Z,0.70
2022-10-04T13:23:00.451Z,0.77
2022-10-04T13:26:29.652Z,0.70
2022-10-04T13:29:25.845Z,0.83
2022-10-04T13:32:07.540Z,0.70
2022-10-04T13:34:47.416Z,0.97
2022-10-04T13:37:37.264Z,0.90
2022-10-04T13:40:33.622Z,0.80
2022-10-04T13:43:40.652Z,0.83
2022-10-04T13:46:26.105Z,0.70
2022-10-04T13:49:07.457Z,0.73
2022-10-04T13:52:40.090Z,0.70
2022-10-04T13:55:44.167Z,0.60
2022-10-04T13:58:34.618Z,0.70
2022-10-04T14:01:45.746Z,0.67
2022-10-04T14:05:06.982Z,0.77
2022-10-04T14:08:26.530Z,0.50
2022-10-04T14:11:16.689Z,0.70
2022-10-04T14:14:10.372Z,0.90
2022-10-04T14:17:15.296Z,0.70
2022-10-04T14:20:32.871Z,0.83
2022-10-04T14:23:39.060Z,0.57
2022-10-04T14:27:05.309Z,0.77
2022-10-04T14:30:12.573Z,0.60
2022-10-04T14:33:13.326Z,0.80
2022-10-04T14:35:53.210Z,0.93
2022-10-04T14:39:22.485Z,0.70
2022-10-04T14:42:38.201Z,0.60
2022-10-04T14:45:35.331Z,0.60
2022-10-04T14:48:36.938Z,0.83
2022-10-04T14:51:21.367Z,0.90
2022-10-04T14:54:01.558Z,0.70
2022-10-04T14:57:00.747Z,0.80
2022-10-04T14:59:53.672Z,0.90
2022-10-04T15:02:51.284Z,0.80
2022-10-04T15:05:38.474Z,0.90
2022-10-04T15:09:07.751Z,0.70
2022-10-04T15:11:57.588Z,0.80
2022-10-04T15:14:42.090Z,0.50
2022-10-04T15:17:26.377Z,0.80
2022-10-04T15:20:08.209Z,0.80
2022-10-04T15:22:43.284Z,0.97
2022-10-04T15:25:41.859Z,0.80
2022-10-04T15:28:47.080Z,0.83
2022-10-04T15:31:25.605Z,0.87
2022-10-04T15:34:06.750Z,1.10
2022-10-04T15:37:06.142Z,1.50
2022-10-04T15:40:21.012Z,1.30
2022-10-04T15:43:25.463Z,1.03
2022-10-04T15:46:43.763Z,1.77
2022-10-04T15:49:29.256Z,1.50
2022-10-04T15:52:19.265Z,1.60
2022-10-04T15:55:19.210Z,2.00
2022-10-04T15:58:21.512Z,1.60
2022-10-04T16:01:05.221Z,1.37
2022-10-04T16:03:46.183Z,0.93
2022-10-04T16:06:24.144Z,1.63
2022-10-04T16:09:19.763Z,2.23
2022-10-04T16:12:05.477Z,1.80
2022-10-04T16:15:15.854Z,1.40
2022-10-04T16:18:05.869Z,1.80
2022-10-04T16:20:57.405Z,1.90
2022-10-04T16:23:32.436Z,1.60
2022-10-04T16:26:03.804Z,2.13
2022-10-04T16:29:08.345Z,1.50
2022-10-04T16:31:53.638Z,1.00
2022-10-04T16:34:48.154Z,1.00
2022-10-04T16:37:40.861Z,1.07
2022-10-04T16:40:28.956Z,0.97
2022-10-04T16:43:03.416Z,1.17
2022-10-04T16:45:46.911Z,0.97
2022-10-04T16:48:29.062Z,1.17
2022-10-04T16:51:27.753Z,0.90
2022-10-04T16:54:03.612Z,0.63
2022-10-04T16:56:34.667Z,0.87
2022-10-04T16:59:04.771Z,1.00
2022-10-04T17:02:14.572Z,0.80
2022-10-04T17:04:55.628Z,0.80
2022-10-04T17:07:38.662Z,0.97
2022-10-04T17:10:21.260Z,1.47
2022-10-04T17:12:57.593Z,1.10
2022-10-04T17:15:43.899Z,1.20
2022-10-04T17:18:29.726Z,1.10
2022-10-04T17:21:01.946Z,1.30
2022-10-04T17:24:10.827Z,1.40
2022-10-04T17:26:57.711Z,1.50
2022-10-04T17:29:43.429Z,1.40
2022-10-04T17:32:24.816Z,1.50
2022-10-04T17:35:31.715Z,1.67
2022-10-04T17:38:08.263Z,1.50
2022-10-04T17:40:52.713Z,1.80
2022-10-04T17:43:30.306Z,1.80
2022-10-04T17:46:13.555Z,1.53
2022-10-04T17:49:05.643Z,1.53
2022-10-04T17:52:00.159Z,1.97
2022-10-04T17:54:51.116Z,1.73
2022-10-04T17:57:30.884Z,1.73
2022-10-04T18:00:10.289Z,2.00
2022-10-04T18:03:05.372Z,1.87
2022-10-04T18:05:47.114Z,1.77
2022-10-04T18:08:35.820Z,1.90
2022-10-04T18:11:17.309Z,2.07
2022-10-04T18:13:51.958Z,1.80
2022-10-04T18:16:27.861Z,1.93
2022-10-04T18:18:56.831Z,2.07
2022-10-04T18:21:29.717Z,2.17
2022-10-04T18:24:02.335Z,1.80
2022-10-04T18:26:34.595Z,1.63
2022-10-04T18:29:13.357Z,1.97
2022-10-04T18:31:42.370Z,1.80
2022-10-04T18:34:28.009Z,2.07
2022-10-04T18:37:07.469Z,1.83
2022-10-04T18:39:51.720Z,2.03
2022-10-04T18:42:30.347Z,1.70
2022-10-04T18:45:02.921Z,1.90
2022-10-04T18:47:38.177Z,1.70
2022-10-04T18:50:19.422Z,1.90
2022-10-04T18:53:13.865Z,1.63
2022-10-04T18:55:52.951Z,1.90
2022-10-04T18:58:57.999Z,1.80
2022-10-04T19:02:02.883Z,1.90
2022-10-04T19:04:56.690Z,1.90
2022-10-04T19:07:38.626Z,2.17
2022-10-04T19:10:23.406Z,2.17
2022-10-04T19:13:04.823Z,2.10
2022-10-04T19:16:13.007Z,1.70
2022-10-04T19:19:03.151Z,1.80
2022-10-04T19:21:46.712Z,2.00
2022-10-04T19:24:40.579Z,2.00
2022-10-04T19:27:23.042Z,1.77
2022-10-04T19:30:05.416Z,1.57
2022-10-04T19:33:02.009Z,1.70
2022-10-04T19:35:51.253Z,1.90
2022-10-04T19:38:40.409Z,1.93
2022-10-04T19:41:21.710Z,1.80
2022-10-04T19:43:57.350Z,2.00
2022-10-04T19:46:38.770Z,2.00
2022-10-04T19:49:20.364Z,1.77
2022-10-04T19:51:55.166Z,1.90
2022-10-04T19:54:34.205Z,1.70
2022-10-04T19:57:04.916Z,2.20
2022-10-04T19:59:41.242Z,2.27
2022-10-04T20:02:11.360Z,1.93
2022-10-04T20:04:42.137Z,2.10
2022-10-04T20:07:23.675Z,2.20
2022-10-04T20:09:56.368Z,2.03
2022-10-04T20:12:37.996Z,1.97
2022-10-04T20:15:27.521Z,2.03
2022-10-04T20:17:58.173Z,2.00
2022-10-04T20:21:06.154Z,2.20
2022-10-04T20:23:56.680Z,2.13
2022-10-04T20:27:06.754Z,2.10
2022-10-04T20:30:13.239Z,1.80
2022-10-04T20:33:01.340Z,2.27
2022-10-04T20:36:09.142Z,2.10
2022-10-04T20:38:59.468Z,1.80
2022-10-04T20:42:04.282Z,1.80
2022-10-04T20:44:54.558Z,1.90
2022-10-04T20:47:46.301Z,1.90
2022-10-04T20:50:34.080Z,2.13
2022-10-04T20:53:07.389Z,2.00
2022-10-04T20:55:39.120Z,2.30
2022-10-04T20:58:32.428Z,2.10
2022-10-04T21:01:16.309Z,2.30
2022-10-04T21:03:45.049Z,2.57
2022-10-04T21:06:13.956Z,2.37
2022-10-04T21:08:42.913Z,2.37
2022-10-04T21:11:22.624Z,2.47
2022-10-04T21:14:00.095Z,2.20
2022-10-04T21:16:48.113Z,2.13
2022-10-04T21:19:47.641Z,2.00
2022-10-04T21:22:41.579Z,1.93
2022-10-04T21:25:33.078Z,2.20
2022-10-04T21:28:27.831Z,1.90
2022-10-04T21:30:56.723Z,2.10
2022-10-04T21:33:25.581Z,1.80
2022-10-04T21:35:54.499Z,1.90
2022-10-04T21:38:23.599Z,2.07
2022-10-04T21:40:52.646Z,2.13
2022-10-04T21:43:21.728Z,1.97
2022-10-04T21:45:52.299Z,1.93
2022-10-04T21:48:23.068Z,1.73
2022-10-04T21:50:53.277Z,1.80
2022-10-04T21:53:22.919Z,1.70
2022-10-04T21:55:51.793Z,1.77
2022-10-04T21:58:20.270Z,1.80
2022-10-04T22:00:48.861Z,1.63
2022-10-04T22:03:18.958Z,1.80
2022-10-04T22:05:47.657Z,1.67
2022-10-04T22:08:16.265Z,1.70
2022-10-04T22:10:45.679Z,1.90
2022-10-04T22:13:14.402Z,1.83
2022-10-04T22:15:43.055Z,1.80
2022-10-04T22:18:11.580Z,1.60
2022-10-04T22:20:41.523Z,1.70
2022-10-04T22:23:18.166Z,1.57
2022-10-04T22:25:47.002Z,1.87
2022-10-04T22:28:23.068Z,2.00
2022-10-04T22:30:53.305Z,1.90
2022-10-04T22:33:32.774Z,1.93
2022-10-04T22:36:19.618Z,1.33
2022-10-04T22:38:53.001Z,1.77
2022-10-04T22:41:22.096Z,1.93
2022-10-04T22:43:51.976Z,1.83
2022-10-04T22:46:21.667Z,1.70
2022-10-04T22:48:51.083Z,1.80
2022-10-04T22:51:21.866Z,1.87
2022-10-04T22:53:51.512Z,1.90
2022-10-04T22:56:20.912Z,1.87
2022-10-04T22:58:50.083Z,1.60
2022-10-04T23:01:20.141Z,1.83
2022-10-04T23:03:50.970Z,1.90
2022-10-04T23:06:21.292Z,1.80
2022-10-04T23:08:51.586Z,2.30
2022-10-04T23:11:20.672Z,1.87
2022-10-04T23:13:49.123Z,1.70
2022-10-04T23:16:22.420Z,1.80
2022-10-04T23:18:51.272Z,1.50
2022-10-04T23:21:26.480Z,1.87
2022-10-04T23:23:55.299Z,1.90
2022-10-04T23:26:28.203Z,1.50
2022-10-04T23:28:56.779Z,1.77
2022-10-04T23:31:27.134Z,1.80
2022-10-04T23:33:58.115Z,1.80
2022-10-04T23:36:27.979Z,1.90
2022-10-04T23:39:02.280Z,2.00
2022-10-04T23:41:30.970Z,1.73
2022-10-04T23:43:59.613Z,1.90
2022-10-04T23:46:28.171Z,1.70
2022-10-04T23:48:56.805Z,1.60
2022-10-04T23:51:25.237Z,1.90
2022-10-04T23:53:55.187Z,1.77
2022-10-04T23:56:26.416Z,1.93
2022-10-04T23:58:58.388Z,1.73
